• Join FlightAware (Why Join?)
  • Login
  • US Flag 
 
03:27PM EST


 

Airport Tracker/Info


-or-


 

Live Flight TrackerFlight Track Log ✈ N543JB ✈ 16-Apr-2014 ✈ CYKF - CYGK

Flight Track Log - Related Links

Times and Time Zones

All times are in EDT time to prevent confusion due to time zone crossing. See the N543JB flight status page for this flight to view local times or setup timezone preferences in your user account.

Time Position Orientation Groundspeed Altitude Reporting Facility
EDT Latitude Longitude Course Direction KTS MPH feet Rate Location/Type
05:10PM 43.4000 -80.3833 72° East 180 207 4,500  Level Toronto Center
05:11PM 43.3667 -80.3500 144° Southeast 210 242 6,600 2,400 Climbing Toronto Center
05:12PM 43.3667 -80.2500 90° East 240 276 9,300 2,460 Climbing Toronto Center
05:13PM 43.3833 -80.1667 75° East 240 276 11,600 2,100 Climbing Toronto Center
05:14PM 43.4000 -80.0667 77° East 250 288 13,600 1,980 Climbing Toronto Center
05:15PM 43.6344 -79.8067 72° East  Level FlightAware Approximate
05:15PM 43.4500 -80.0000 44° Northeast 260 299 15,600  Level Toronto Center
05:16PM 43.6572 -79.7079 72° East  Level FlightAware Approximate
05:16PM 43.4833 -79.9167 61° Northeast 270 311 17,800  Level Toronto Center
05:17PM 43.5333 -79.8167 55° Northeast 290 334 19,300 1,860 Climbing Toronto Center
05:18PM 43.5833 -79.7333 50° Northeast 300 345 21,500 2,040 Climbing Toronto Center
05:19PM 43.6333 -79.6333 55° Northeast 300 345 23,400 1,860 Climbing Toronto Center
05:20PM 43.6833 -79.5167 59° Northeast 320 368 25,300 1,680 Climbing Toronto Center
05:21PM 43.7000 -79.4000 79° East 340 391 26,800 840 Climbing Toronto Center
05:22PM 43.7167 -79.2667 80° East 360 414 27,000 60 Climbing Toronto Center
05:23PM 43.7500 -79.1000 74° East 410 472 27,000  Level Toronto Center
05:24PM 43.7833 -78.9333 74° East 430 495 27,000  Level Toronto Center
05:25PM 43.8167 -78.7833 73° East 440 506 27,000  Level Toronto Center
05:26PM 43.8500 -78.6167 74° East 450 518 27,000  Level Toronto Center
05:27PM 43.8667 -78.4500 82° East 450 518 27,000 -660 Level Toronto Center
05:28PM 43.9000 -78.2833 74° East 450 518 25,700 -1,860 Descending Toronto Center
05:29PM 43.9333 -78.1000 76° East 440 506 23,300 -2,220 Descending Toronto Center
05:30PM 43.9667 -77.9667 71° East 410 472 21,300 -2,160 Descending Toronto Center
05:31PM 44.0000 -77.8000 74° East 400 460 19,000 -2,100 Descending Toronto Center
05:32PM 44.0333 -77.6667 71° East 400 460 17,200 -1,980 Descending Toronto Center
05:33PM 44.0500 -77.5500 79° East 370 426 15,100 -2,040 Descending Toronto Center
05:34PM 44.0833 -77.4000 73° East 340 391 13,200 -1,860 Descending Toronto Center
05:35PM 44.0833 -77.2833 90° East 340 391 11,400 -1,800 Descending Toronto Center
05:36PM 44.1333 -77.2000 50° Northeast 330 380 9,900 -1,860 Descending Montreal Center
05:37PM 44.1500 -77.0833 79° East 310 357 8,000 -1,500 Descending Montreal Center
05:38PM 44.1833 -77.0000 61° Northeast 280 322 6,900 -1,080 Descending Montreal Center
05:39PM 44.2000 -76.9000 77° East 270 311 5,900 -1,200 Descending Montreal Center
05:40PM 44.2333 -76.7833 68° East 270 311 4,600 -1,440 Descending Montreal Center
05:41PM 44.2667 -76.7167 55° Northeast 230 265 3,100 -1,200 Descending Montreal Center
05:42PM 44.2833 -76.6500 71° East 210 242 2,200 -900 Descending Montreal Center
05:44PM 44.2253 -76.5969 77° East  Level Estimated